Latest Weather Observations for Mandora

IDW60801

Issued at 3:03 pm WST Friday 6 March 2015 (issued every 30 minutes, with the page automatically refreshed every 10 minutes)

About weather observations | Map of weather stations | Latest weather observations for WA | Other Formats
Station Details ID: 004019 Name: MANDORA Lat: -19.74 Lon: 120.84 Height: 7.5 m
Data from the previous 72 hours. | See also: Recent months at Mandora
Date/Time
WST
Temp
°C
App
Temp
°C
Dew
Point
Rel
Hum
%
Delta-T
°C
Wind Press
QNH
hPa
Press
MSL
hPa
Rain
since 9 am
mm
Dir
 
Spd
km/h
Gust
km/h
Spd
kts
Gust
kts
06/03:00pm 33.8 36.3 23.2 54 7.4 ENE 15 22 8 12 1007.2 1007.1 0.0
06/02:30pm 33.7 36.4 22.8 53 7.5 E 13 24 7 13 1007.2 - 0.0
06/02:00pm 32.8 35.4 22.6 55 7.0 E 13 20 7 11 1007.6 - 0.0
06/01:30pm 32.2 33.8 22.9 58 6.4 ENE 19 28 10 15 1008.2 - 0.0
06/01:00pm 31.8 34.0 23.3 60 5.9 E 17 28 9 15 1008.6 - 0.0
06/12:30pm 29.5 32.3 23.7 71 4.0 ENE 15 24 8 13 1008.9 - 0.0
06/12:00pm 28.7 31.2 23.8 75 3.4 E 17 26 9 14 1009.3 1009.2 0.0
06/11:30am 28.9 30.4 23.1 71 4.0 E 20 37 11 20 1009.8 - 0.0
06/11:00am 30.5 32.0 22.7 63 5.3 E 19 28 10 15 1009.9 - 0.0
06/10:30am 29.7 31.6 23.4 69 4.3 ESE 19 30 10 16 1010.0 - 0.0
06/10:00am 27.7 29.6 23.5 78 2.9 SE 19 32 10 17 1010.4 - 0.0
06/09:30am 27.1 29.8 24.2 84 2.0 SE 17 28 9 15 1010.6 - 0.0
06/09:00am 26.3 29.0 24.2 88 1.4 SE 17 24 9 13 1010.6 1010.5 15.8
06/08:30am 25.4 28.1 24.2 93 0.8 SSE 17 24 9 13 1010.9 - 15.8
06/08:00am 24.5 27.3 23.6 95 0.6 SE 15 24 8 13 1011.4 - 15.8
06/07:30am 23.8 25.8 22.9 95 0.6 ESE 17 28 9 15 1011.8 - 15.8
06/07:00am 23.3 25.4 22.5 95 0.5 ESE 15 24 8 13 1012.2 - 15.8
06/06:30am 23.0 24.2 22.2 95 0.5 ESE 19 28 10 15 1012.3 - 15.8
06/06:00am 23.2 24.8 22.2 94 0.7 E 17 28 9 15 1012.3 1012.2 13.6
06/05:30am 23.7 23.8 22.5 93 0.8 E 26 41 14 22 1011.6 - 12.4
06/05:12am 25.1 25.3 23.5 91 1.1 E 28 48 15 26 1011.0 - 9.8
06/05:00am 26.2 27.9 24.1 88 1.4 ESE 22 43 12 23 1010.9 - 6.2
06/04:30am 27.0 31.9 25.2 90 1.3 ESE 9 17 5 9 1009.5 - 0.2
06/04:00am 26.5 32.4 25.3 93 0.8 SSW 4 9 2 5 1008.7 - 0.2
06/03:30am 26.5 31.9 25.1 92 1.0 N 6 7 3 4 1008.9 - 0.2
06/03:00am 26.3 31.7 25.1 93 0.8 N 6 7 3 4 1009.8 1009.7 0.2
06/02:30am 26.5 32.1 24.9 91 1.1 S 4 7 2 4 1009.2 - 0.2
06/02:00am 26.8 33.1 24.8 89 1.4 CALM 0 0 0 0 1009.5 - 0.2
06/01:30am 27.0 33.1 24.5 86 1.7 CALM 0 0 0 0 1009.7 - 0.2
06/01:00am 27.1 30.9 24.0 83 2.1 SSE 11 17 6 9 1009.3 - 0.2
06/12:30am 26.9 30.9 23.8 83 2.1 SSE 9 13 5 7 1009.4 - 0.2
06/12:00am 26.8 31.3 23.9 84 2.0 SE 7 11 4 6 1009.7 1009.6 0.2
 
Date/Time
WST
Temp
°C
App
Temp
°C
Dew
Point
Rel
Hum
%
Delta-T
°C
Wind Press
QNH
hPa
Press
MSL
hPa
Rain
since 9 am
mm
Dir
 
Spd
km/h
Gust
km/h
Spd
kts
Gust
kts
05/11:30pm 27.0 31.9 24.3 85 1.9 S 6 9 3 5 1009.9 - 0.2
05/11:00pm 27.1 31.9 24.4 85 1.9 SE 7 11 4 6 1010.4 - 0.2
05/10:30pm 27.3 32.5 25.1 88 1.5 SE 7 9 4 5 1010.7 - 0.2
05/10:00pm 27.5 33.1 25.5 89 1.4 ESE 6 9 3 5 1010.7 - 0.2
05/09:30pm 27.5 33.3 25.1 87 1.7 WSW 4 6 2 3 1010.6 - 0.2
05/09:00pm 27.7 33.7 25.5 88 1.5 SW 4 6 2 3 1010.3 1010.2 0.2
05/08:30pm 27.7 34.3 25.3 87 1.7 CALM 0 0 0 0 1010.2 - 0.2
05/08:00pm 27.5 33.1 24.3 83 2.2 SSE 2 6 1 3 1010.0 - 0.2
05/07:30pm 27.7 32.4 23.9 80 2.6 ESE 6 7 3 4 1009.3 - 0.2
05/07:00pm 27.6 33.1 24.0 81 2.5 S 2 6 1 3 1008.9 - 0.2
05/06:30pm 27.3 32.4 24.0 82 2.3 NNW 4 7 2 4 1008.2 - 0.2
05/06:00pm 27.1 31.2 23.3 80 2.6 WNW 7 11 4 6 1007.5 1007.4 0.2
05/05:30pm 27.3 32.4 22.7 76 3.1 CALM 0 0 0 0 1008.3 - 0.2
05/05:00pm 27.0 29.0 22.2 75 3.2 ENE 15 26 8 14 1008.1 - 0.2
05/04:30pm 31.0 34.1 25.4 72 4.0 NNW 19 26 10 14 1007.1 - 0.2
05/04:00pm 32.2 34.0 24.3 63 5.5 NNW 22 32 12 17 1007.0 - 0.2
05/03:30pm 33.4 35.2 24.3 59 6.4 NNW 22 33 12 18 1007.1 - 0.2
05/03:00pm 33.6 35.8 24.2 58 6.6 NNW 20 32 11 17 1006.5 1006.4 0.2
05/02:30pm 33.8 36.6 24.9 59 6.3 NNW 19 26 10 14 1006.9 - 0.2
05/02:00pm 33.8 36.3 24.4 58 6.6 NNW 19 26 10 14 1007.5 - 0.2
05/01:30pm 33.8 36.7 23.8 56 7.0 N 15 24 8 13 1007.8 - 0.2
05/01:00pm 34.0 37.2 24.3 57 6.8 N 15 20 8 11 1008.2 - 0.2
05/12:30pm 34.0 37.2 24.3 57 6.8 N 15 20 8 11 1008.5 - 0.2
05/12:00pm 33.6 36.7 23.6 56 7.0 NNE 13 19 7 10 1008.9 1008.8 0.2
05/11:30am 33.8 36.5 23.5 55 7.2 ENE 15 20 8 11 1009.1 - 0.2
05/11:00am 33.9 36.7 23.6 55 7.2 ENE 15 22 8 12 1009.5 - 0.2
05/10:30am 33.2 35.2 22.9 54 7.1 ENE 17 26 9 14 1009.9 - 0.2
05/10:00am 33.1 35.4 22.8 54 7.1 ENE 15 24 8 13 1010.0 - 0.2
05/09:30am 32.3 35.8 23.5 59 6.1 E 11 20 6 11 1009.9 - 0.0
05/09:00am 31.6 35.0 23.4 61 5.7 E 11 19 6 10 1010.1 1010.0 4.4
05/08:30am 30.5 33.2 22.9 64 5.2 E 13 20 7 11 1009.7 - 4.4
05/08:00am 29.1 31.4 22.8 69 4.3 E 15 28 8 15 1009.6 - 4.4
05/07:30am 27.8 30.8 23.4 77 3.0 E 13 20 7 11 1009.5 - 4.4
05/07:00am 26.6 29.9 23.9 85 1.9 ESE 13 19 7 10 1009.0 - 4.4
05/06:30am 25.7 30.3 24.7 94 0.7 ESE 9 13 5 7 1008.6 - 4.4
05/06:00am 25.4 30.2 24.4 94 0.7 ESE 7 9 4 5 1008.2 1008.1 4.4
05/05:30am 25.5 30.6 24.6 95 0.6 ESE 6 9 3 5 1007.9 - 4.4
05/05:00am 25.6 30.7 24.7 95 0.6 SE 6 7 3 4 1007.5 - 4.4
05/04:30am 25.8 30.9 24.9 95 0.6 SE 7 9 4 5 1007.3 - 4.4
05/04:00am 25.9 31.0 25.0 95 0.6 SE 7 11 4 6 1007.1 - 4.4
05/03:30am 25.8 30.9 24.9 95 0.6 SE 7 11 4 6 1007.1 - 4.4
05/03:00am 25.8 30.5 24.9 95 0.6 ESE 9 11 5 6 1007.1 1007.0 4.4
05/02:30am 25.8 30.9 24.9 95 0.6 E 7 9 4 5 1007.2 - 4.4
05/02:00am 25.9 31.0 25.0 95 0.6 E 7 9 4 5 1007.4 - 4.4
05/01:30am 25.8 32.2 24.9 95 0.6 CALM 0 6 0 3 1007.7 - 4.4
05/01:00am 26.0 31.4 25.1 95 0.6 E 6 7 3 4 1007.8 - 4.4
05/12:30am 25.9 31.9 24.9 94 0.7 E 2 7 1 4 1008.0 - 4.4
05/12:00am 26.1 32.2 25.1 94 0.7 E 2 6 1 3 1008.4 1008.3 4.4
 
Date/Time
WST
Temp
°C
App
Temp
°C
Dew
Point
Rel
Hum
%
Delta-T
°C
Wind Press
QNH
hPa
Press
MSL
hPa
Rain
since 9 am
mm
Dir
 
Spd
km/h
Gust
km/h
Spd
kts
Gust
kts
04/11:30pm 26.2 31.6 25.2 94 0.7 ESE 6 7 3 4 1008.6 - 4.4
04/11:00pm 26.1 31.4 24.9 93 0.8 ENE 6 7 3 4 1008.7 - 4.4
04/10:30pm 26.2 31.2 24.8 92 1.0 ESE 7 9 4 5 1008.9 - 4.4
04/10:00pm 26.2 31.2 24.8 92 1.0 ESE 7 9 4 5 1009.1 - 4.4
04/09:30pm 26.3 31.7 25.1 93 0.8 E 6 7 3 4 1009.1 - 4.4
04/09:00pm 26.5 31.9 25.1 92 1.0 E 6 7 3 4 1009.1 1009.0 4.4
04/08:30pm 26.5 31.9 25.1 92 1.0 ENE 6 7 3 4 1008.8 - 4.4
04/08:00pm 26.9 32.7 25.1 90 1.3 ESE 4 11 2 6 1008.2 - 4.4
04/07:30pm 27.2 32.7 25.6 91 1.1 ESE 7 11 4 6 1007.6 - 4.4
04/07:00pm 27.5 32.9 25.5 89 1.4 SE 7 9 4 5 1007.1 - 4.4
04/06:30pm 28.1 35.8 26.9 93 0.9 CALM 0 0 0 0 1006.8 - 4.4
04/06:00pm 27.9 35.5 26.7 93 0.9 CALM 0 0 0 0 1006.6 1006.5 4.4
04/05:30pm 27.4 34.0 25.8 91 1.1 ESE 2 6 1 3 1006.4 - 4.4
04/05:00pm 26.7 31.1 24.5 88 1.5 NE 9 20 5 11 1006.4 - 4.4
04/04:45pm 29.0 32.7 23.9 74 3.5 E 11 20 6 11 1006.4 - 2.0
04/04:30pm 34.0 37.6 23.1 53 7.5 SSE 9 17 5 9 1005.4 - 0.0
04/04:00pm 33.5 37.3 23.5 55 6.9 SSE 9 17 5 9 1005.2 - 0.0
04/03:30pm 33.6 36.1 22.4 52 7.7 SE 13 20 7 11 1005.5 - 0.0
04/03:00pm 33.5 35.7 22.6 53 7.5 SE 15 24 8 13 1005.8 1005.7 0.0
04/02:30pm 32.8 35.0 22.6 55 7.0 SE 15 28 8 15 1005.8 - 0.0
04/02:00pm 31.7 34.7 22.7 59 6.2 SE 11 17 6 9 1006.5 - 0.0
04/01:30pm 30.8 33.1 22.7 62 5.5 SE 15 24 8 13 1006.9 - 0.0
04/01:00pm 31.1 33.2 22.4 60 5.9 SE 15 24 8 13 1006.9 - 0.0
04/12:30pm 31.2 33.0 22.5 60 5.9 SSE 17 26 9 14 1007.6 - 0.0
04/12:00pm 30.6 31.9 22.7 62 5.4 SE 20 33 11 18 1008.1 1008.0 0.0
04/11:30am 30.2 30.7 22.6 63 5.2 SSE 24 35 13 19 1008.5 - 0.0
04/11:00am 30.4 32.2 23.6 67 4.7 SSE 20 35 11 19 1008.7 - 0.0
04/10:30am 30.0 31.9 23.7 69 4.4 SSE 20 33 11 18 1008.8 - 0.0
04/10:00am 29.3 30.6 24.0 73 3.7 SSE 24 37 13 20 1008.7 - 0.0
04/09:30am 28.4 30.2 24.2 78 2.9 S 22 33 12 18 1008.9 - 0.0
04/09:00am 27.2 28.7 23.7 81 2.4 S 22 43 12 23 1008.8 1008.7 13.4
04/08:30am 26.5 27.7 23.2 82 2.2 S 22 33 12 18 1008.9 - 13.4
04/08:00am 25.8 27.6 23.3 86 1.7 S 19 30 10 16 1008.9 - 13.4
04/07:30am 25.2 27.1 23.4 90 1.2 S 19 26 10 14 1008.8 - 13.4
04/07:00am 24.9 26.8 23.7 93 0.8 S 20 28 11 15 1008.6 - 13.4
04/06:30am 25.0 26.8 23.6 92 1.0 S 20 28 11 15 1008.7 - 12.8
04/06:00am 25.3 27.5 23.2 88 1.4 SSE 17 28 9 15 1008.9 1008.8 12.6
04/05:30am 25.3 28.7 23.4 89 1.3 SSE 11 19 6 10 1008.3 - 12.4
04/05:00am 25.3 28.8 23.5 90 1.2 S 11 15 6 8 1007.6 - 12.4
04/04:30am 24.9 28.0 23.5 92 1.0 SSW 13 17 7 9 1007.0 - 12.4
04/04:00am 24.8 27.7 23.2 91 1.1 S 13 17 7 9 1007.2 - 12.4
04/03:30am 24.6 27.6 23.4 93 0.8 S 13 20 7 11 1006.3 - 12.4
04/03:00am 24.5 27.6 23.5 94 0.7 SW 13 19 7 10 1006.0 1005.9 12.4
04/02:30am 24.2 26.8 23.3 95 0.6 SW 15 20 8 11 1005.4 - 12.4
04/02:00am 24.2 27.6 23.3 95 0.6 SW 11 15 6 8 1005.9 - 12.4
04/01:30am 24.1 28.2 23.2 95 0.6 S 7 13 4 7 1005.9 - 12.4
04/01:00am 23.6 26.7 22.8 95 0.5 S 11 15 6 8 1005.7 - 12.4
04/12:30am 23.2 25.6 22.2 94 0.7 NNW 13 19 7 10 1006.4 - 12.4
04/12:23am 23.1 25.0 22.1 94 0.7 N 15 28 8 15 1006.9 - 12.2
04/12:00am 23.7 22.5 21.6 88 1.4 E 30 52 16 28 1008.9 1008.8 1.2
 
Date/Time
WST
Temp
°C
App
Temp
°C
Dew
Point
Rel
Hum
%
Delta-T
°C
Wind Press
QNH
hPa
Press
MSL
hPa
Rain
since 9 am
mm
Dir
 
Spd
km/h
Gust
km/h
Spd
kts
Gust
kts
03/11:56pm 24.9 24.2 21.8 83 2.1 E 28 52 15 28 1009.0 - 0.0
03/11:53pm 25.6 25.3 22.5 83 2.1 E 28 41 15 22 1009.0 - 0.0
03/11:30pm 25.1 28.6 22.8 87 1.6 SE 9 13 5 7 1007.3 - 0.0
03/11:00pm 25.2 28.2 23.3 89 1.3 SSE 13 20 7 11 1008.6 - 0.0
03/10:30pm 26.1 28.1 22.2 79 2.6 SSE 15 26 8 14 1008.6 - 0.0
03/10:00pm 29.3 31.1 23.5 71 4.0 ESE 20 39 11 21 1008.9 - 0.0
03/09:30pm 29.3 34.5 25.1 78 3.0 WSW 7 11 4 6 1007.3 - 0.0
03/09:00pm 29.4 33.6 24.7 76 3.3 W 11 15 6 8 1006.9 1006.8 0.0
03/08:30pm 29.4 33.1 24.5 75 3.4 W 13 17 7 9 1006.5 - 0.0
03/08:00pm 29.4 33.2 24.7 76 3.3 WNW 13 17 7 9 1006.5 - 0.0
03/07:30pm 29.5 33.9 25.0 77 3.2 WNW 11 15 6 8 1006.4 - 0.0
03/07:00pm 29.8 34.2 25.1 76 3.3 WNW 11 15 6 8 1006.1 - 0.0
03/06:30pm 30.1 34.4 24.9 73 3.6 WNW 11 17 6 9 1005.7 - 0.0
03/06:00pm 30.7 34.4 25.1 72 4.0 NW 15 20 8 11 1004.8 1004.7 0.0
03/05:30pm 31.4 34.5 24.8 68 4.6 NW 17 22 9 12 1004.5 - 0.0
03/05:00pm 32.3 36.0 25.1 65 5.1 WNW 15 22 8 12 1004.6 - 0.0
03/04:30pm 32.0 35.1 24.8 65 5.1 WNW 17 22 9 12 1004.5 - 0.0
03/04:00pm 32.9 35.6 24.1 60 6.2 WNW 17 24 9 13 1004.6 - 0.0
03/03:30pm 33.0 36.5 24.2 60 6.2 WNW 13 20 7 11 1004.7 - 0.0

Other Formats:

Comma delimited format used in spreadsheet applications
http://www.bom.gov.au/fwo/IDW60801/IDW60801.94200.axf

JavaScript Object Notation format (JSON) in row-major order
http://www.bom.gov.au/fwo/IDW60801/IDW60801.94200.json